Cato Island, Australia
Current Conditions -  °F | °C
As of 5:00 PM on Friday 19 Dec 2014 (Local Time) from YBUD Reporting Station
Clear Clear  
Wind Chill: 31°   Ceiling: Unl
Heat Index: 31°   Visibility: 6mi
Dew Point: 16°   Wind: 0mph
Humidity: 40%   Direction: NA
Pressure: 29.83"   Gusts: NA
Location:  23.25°S, 155.53°E
Report Text: YBUD 190700Z AUTO 00000KT 9999 // NCD 31/16 Q1010
Loading
Personal Weather Stations






























Interactive Weather Map New forecast layout! Learn more

10-Day Weather Forecast

Advertisements
Track Severe Weather on mobile